Tortugas — 9HA4366 — position and weather

sailwx.info

Track history (hours):
 
Tides and Currents Weather Stations Pressure Air Temp Water Temp Dewpoint Dewpoint Depression Visibility Wind Speed Wind Dir Waves Ship Positions

Tortugas

Last reported at 2017-Dec-11 17:00 UTC. Time now 2017-Dec-14 16:45 UTC.
Position N 43°23' E 010°11'.

Length 199 m; draft 9.7 m.

Type: Cargo ship. MMSI: 249757000.

Date/timePositionNaut miles runAvg speedWind from/ knotsBaromVisibWave heightAir tempDewpointWater temp
2017-Dec-11 17:00N 43°23' E 010°11'2 3.1
2017-Dec-11 16:30N 43°21' E 010°10'1 2.4
2017-Dec-11 16:00N 43°20' E 010°11'4 7.6
2017-Dec-11 15:30N 43°23' E 010°14'3 6.7
2017-Dec-11 15:01N 43°26' E 010°17'2 4.2
2017-Dec-11 14:30N 43°25' E 010°14'2 4.0
2017-Dec-11 14:00N 43°23' E 010°12'2 3.8
2017-Dec-11 13:30N 43°22' E 010°10'2 3.1
2017-Dec-11 13:00N 43°21' E 010°10'2 3.2
2017-Dec-11 12:30N 43°21' E 010°12'4 8.9
2017-Dec-11 12:00N 43°25' E 010°15'1 2.9
2017-Dec-11 11:30N 43°24' E 010°13'2 3.7
2017-Dec-11 11:00N 43°23' E 010°11'2 3.3
2017-Dec-11 10:30N 43°22' E 010°10'2 3.1
2017-Dec-11 10:00N 43°20' E 010°10'1 2.8
2017-Dec-11 09:30N 43°21' E 010°12'4 8.9
2017-Dec-11 09:00N 43°25' E 010°13'1 1.4
2017-Dec-11 08:30N 43°25' E 010°12'1 1.0
2017-Dec-11 07:57N 43°24' E 010°12'2 4.0
2017-Dec-11 07:30N 43°26' E 010°13'1 2.0
2017-Dec-11 06:59N 43°25' E 010°12'1 3.0
2017-Dec-11 06:30N 43°27' E 010°11'1 1.5
2017-Dec-11 06:01N 43°26' E 010°11'0 1.0
2017-Dec-11 05:30N 43°26' E 010°11'1 2.1
2017-Dec-11 05:00N 43°25' E 010°12'1 1.9
2017-Dec-11 04:30N 43°24' E 010°12'1 1.9
2017-Dec-11 04:00N 43°23' E 010°12'4 8.0
2017-Dec-11 03:30N 43°27' E 010°12'1 1.0
2017-Dec-11 02:57N 43°27' E 010°12'613.2
2017-Dec-11 02:30N 43°21' E 010°10'714.2
2017-Dec-11 02:00N 43°15' E 010°06'813.5
2017-Dec-11 01:25N 43°07' E 010°03'613.3
2017-Dec-11 00:57N 43°01' E 009°60'613.5
2017-Dec-11 00:30N 42°56' E 009°57'713.5
2017-Dec-11 00:00N 42°49' E 009°55'713.5
2017-Dec-10 23:29N 42°42' E 009°55'3913.1
2017-Dec-10 20:28N 42°06' E 010°16'28715.0
2017-Dec-10 01:20N 38°54' E 014°56'513.6
2017-Dec-10 00:59N 38°51' E 015°01'713.9
2017-Dec-10 00:30N 38°46' E 015°07'714.1
2017-Dec-10 00:00N 38°41' E 015°14'713.2
2017-Dec-09 23:30N 38°37' E 015°20'612.6
2017-Dec-09 23:00N 38°33' E 015°26'612.5
2017-Dec-09 22:30N 38°28' E 015°32'612.5
2017-Dec-09 22:00N 38°24' E 015°37'612.9
2017-Dec-09 21:30N 38°18' E 015°42'611.4
2017-Dec-09 21:00N 38°14' E 015°37'815.7
2017-Dec-09 20:30N 38°06' E 015°36'714.5
2017-Dec-09 20:00N 37°59' E 015°36'714.8
2017-Dec-09 19:30N 37°52' E 015°40'714.3
2017-Dec-09 19:00N 37°48' E 015°48'815.4
2017-Dec-09 18:29N 37°46' E 015°58'815.5
2017-Dec-09 18:00N 37°44' E 016°07'36013.5
2017-Dec-08 15:23N 37°03' E 023°36'816.5
2017-Dec-08 14:53N 37°11' E 023°39'616.5
2017-Dec-08 14:30N 37°17' E 023°42'816.4
2017-Dec-08 14:00N 37°25' E 023°43'816.6
2017-Dec-08 13:31N 37°33' E 023°42'816.3
2017-Dec-08 13:01N 37°42' E 023°41'816.2
2017-Dec-08 12:30N 37°49' E 023°37'714.7
2017-Dec-08 12:01N 37°56' E 023°36'1 2.2
2017-Dec-08 11:29N 37°58' E 023°36'0 0.0
2017-Dec-08 10:59N 37°58' E 023°36'0 0.0
2017-Dec-08 10:29N 37°58' E 023°36'0 0.0
2017-Dec-08 09:59N 37°58' E 023°36'0 0.0
2017-Dec-08 09:29N 37°58' E 023°36'0 0.0
2017-Dec-08 08:59N 37°58' E 023°36'0 0.0
2017-Dec-08 08:29N 37°58' E 023°36'0 0.0
2017-Dec-08 07:59N 37°58' E 023°36'0 0.0
2017-Dec-08 07:29N 37°58' E 023°36'0 0.0
2017-Dec-08 06:59N 37°58' E 023°36'0 0.0
2017-Dec-08 06:29N 37°58' E 023°36'0 0.0
2017-Dec-08 05:59N 37°58' E 023°36'0 0.3
2017-Dec-08 05:30N 37°58' E 023°36'2 4.4
2017-Dec-08 05:00N 37°55' E 023°36'1 1.8
2017-Dec-08 04:30N 37°54' E 023°37'4 8.5
2017-Dec-08 04:00N 37°51' E 023°39'4 8.6
2017-Dec-08 03:30N 37°47' E 023°41'510.6
2017-Dec-08 03:00N 37°42' E 023°45'714.2
2017-Dec-08 02:30N 37°36' E 023°49'816.2
2017-Dec-08 02:00N 37°28' E 023°50'917.4
2017-Dec-08 01:30N 37°20' E 023°54'917.7
2017-Dec-08 01:00N 37°11' E 023°57'917.5
2017-Dec-08 00:30N 37°03' E 024°02'917.7
2017-Dec-08 00:00N 36°55' E 024°06'917.9
2017-Dec-07 23:30N 36°46' E 024°09'917.9
2017-Dec-07 23:00N 36°38' E 024°13'917.3
2017-Dec-07 22:30N 36°32' E 024°21'917.8
2017-Dec-07 22:00N 36°28' E 024°30'918.3
2017-Dec-07 21:30N 36°23' E 024°40'918.2
2017-Dec-07 21:00N 36°17' E 024°49'918.1
2017-Dec-07 20:30N 36°12' E 024°59'918.2
2017-Dec-07 20:00N 36°07' E 025°08'918.1
2017-Dec-07 19:30N 36°02' E 025°17'918.1
2017-Dec-07 19:00N 35°57' E 025°27'917.9
2017-Dec-07 18:30N 35°52' E 025°36'918.1
2017-Dec-07 18:00N 35°47' E 025°45'917.9
2017-Dec-07 17:30N 35°42' E 025°54'1417.9
2017-Dec-07 16:44N 35°35' E 026°09'418.2
2017-Dec-07 16:30N 35°33' E 026°13'  
Track history (hours):
 
Tides and Currents Weather Stations Pressure Air Temp Water Temp Dewpoint Dewpoint Depression Visibility Wind Speed Wind Dir Waves Ship Positions

Tortugas

Last reported at 2017-Dec-11 17:00 UTC. Time now 2017-Dec-14 16:45 UTC.
Position N 43°23' E 010°11'.

Length 199 m; draft 9.7 m.

Type: Cargo ship. MMSI: 249757000.

Date/timePositionNaut miles runAvg speedWind from/ knotsBaromVisibWave heightAir tempDewpointWater temp
2017-Dec-11 17:00N 43°23' E 010°11'2 3.1
2017-Dec-11 16:30N 43°21' E 010°10'1 2.4
2017-Dec-11 16:00N 43°20' E 010°11'4 7.6
2017-Dec-11 15:30N 43°23' E 010°14'3 6.7
2017-Dec-11 15:01N 43°26' E 010°17'2 4.2
2017-Dec-11 14:30N 43°25' E 010°14'2 4.0
2017-Dec-11 14:00N 43°23' E 010°12'2 3.8
2017-Dec-11 13:30N 43°22' E 010°10'2 3.1
2017-Dec-11 13:00N 43°21' E 010°10'2 3.2
2017-Dec-11 12:30N 43°21' E 010°12'4 8.9
2017-Dec-11 12:00N 43°25' E 010°15'1 2.9
2017-Dec-11 11:30N 43°24' E 010°13'2 3.7
2017-Dec-11 11:00N 43°23' E 010°11'2 3.3
2017-Dec-11 10:30N 43°22' E 010°10'2 3.1
2017-Dec-11 10:00N 43°20' E 010°10'1 2.8
2017-Dec-11 09:30N 43°21' E 010°12'4 8.9
2017-Dec-11 09:00N 43°25' E 010°13'1 1.4
2017-Dec-11 08:30N 43°25' E 010°12'1 1.0
2017-Dec-11 07:57N 43°24' E 010°12'2 4.0
2017-Dec-11 07:30N 43°26' E 010°13'1 2.0
2017-Dec-11 06:59N 43°25' E 010°12'1 3.0
2017-Dec-11 06:30N 43°27' E 010°11'1 1.5
2017-Dec-11 06:01N 43°26' E 010°11'0 1.0
2017-Dec-11 05:30N 43°26' E 010°11'1 2.1
2017-Dec-11 05:00N 43°25' E 010°12'1 1.9
2017-Dec-11 04:30N 43°24' E 010°12'1 1.9
2017-Dec-11 04:00N 43°23' E 010°12'4 8.0
2017-Dec-11 03:30N 43°27' E 010°12'1 1.0
2017-Dec-11 02:57N 43°27' E 010°12'613.2
2017-Dec-11 02:30N 43°21' E 010°10'714.2
2017-Dec-11 02:00N 43°15' E 010°06'813.5
2017-Dec-11 01:25N 43°07' E 010°03'613.3
2017-Dec-11 00:57N 43°01' E 009°60'613.5
2017-Dec-11 00:30N 42°56' E 009°57'713.5
2017-Dec-11 00:00N 42°49' E 009°55'713.5
2017-Dec-10 23:29N 42°42' E 009°55'3913.1
2017-Dec-10 20:28N 42°06' E 010°16'28715.0
2017-Dec-10 01:20N 38°54' E 014°56'513.6
2017-Dec-10 00:59N 38°51' E 015°01'713.9
2017-Dec-10 00:30N 38°46' E 015°07'714.1
2017-Dec-10 00:00N 38°41' E 015°14'713.2
2017-Dec-09 23:30N 38°37' E 015°20'612.6
2017-Dec-09 23:00N 38°33' E 015°26'612.5
2017-Dec-09 22:30N 38°28' E 015°32'612.5
2017-Dec-09 22:00N 38°24' E 015°37'612.9
2017-Dec-09 21:30N 38°18' E 015°42'611.4
2017-Dec-09 21:00N 38°14' E 015°37'815.7
2017-Dec-09 20:30N 38°06' E 015°36'714.5
2017-Dec-09 20:00N 37°59' E 015°36'714.8
2017-Dec-09 19:30N 37°52' E 015°40'714.3
2017-Dec-09 19:00N 37°48' E 015°48'815.4
2017-Dec-09 18:29N 37°46' E 015°58'815.5
2017-Dec-09 18:00N 37°44' E 016°07'36013.5
2017-Dec-08 15:23N 37°03' E 023°36'816.5
2017-Dec-08 14:53N 37°11' E 023°39'616.5
2017-Dec-08 14:30N 37°17' E 023°42'816.4
2017-Dec-08 14:00N 37°25' E 023°43'816.6
2017-Dec-08 13:31N 37°33' E 023°42'816.3
2017-Dec-08 13:01N 37°42' E 023°41'816.2
2017-Dec-08 12:30N 37°49' E 023°37'714.7
2017-Dec-08 12:01N 37°56' E 023°36'1 2.2
2017-Dec-08 11:29N 37°58' E 023°36'0 0.0
2017-Dec-08 10:59N 37°58' E 023°36'0 0.0
2017-Dec-08 10:29N 37°58' E 023°36'0 0.0
2017-Dec-08 09:59N 37°58' E 023°36'0 0.0
2017-Dec-08 09:29N 37°58' E 023°36'0 0.0
2017-Dec-08 08:59N 37°58' E 023°36'0 0.0
2017-Dec-08 08:29N 37°58' E 023°36'0 0.0
2017-Dec-08 07:59N 37°58' E 023°36'0 0.0
2017-Dec-08 07:29N 37°58' E 023°36'0 0.0
2017-Dec-08 06:59N 37°58' E 023°36'0 0.0
2017-Dec-08 06:29N 37°58' E 023°36'0 0.0
2017-Dec-08 05:59N 37°58' E 023°36'0 0.3
2017-Dec-08 05:30N 37°58' E 023°36'2 4.4
2017-Dec-08 05:00N 37°55' E 023°36'1 1.8
2017-Dec-08 04:30N 37°54' E 023°37'4 8.5
2017-Dec-08 04:00N 37°51' E 023°39'4 8.6
2017-Dec-08 03:30N 37°47' E 023°41'510.6
2017-Dec-08 03:00N 37°42' E 023°45'714.2
2017-Dec-08 02:30N 37°36' E 023°49'816.2
2017-Dec-08 02:00N 37°28' E 023°50'917.4
2017-Dec-08 01:30N 37°20' E 023°54'917.7
2017-Dec-08 01:00N 37°11' E 023°57'917.5
2017-Dec-08 00:30N 37°03' E 024°02'917.7
2017-Dec-08 00:00N 36°55' E 024°06'917.9
2017-Dec-07 23:30N 36°46' E 024°09'917.9
2017-Dec-07 23:00N 36°38' E 024°13'917.3
2017-Dec-07 22:30N 36°32' E 024°21'917.8
2017-Dec-07 22:00N 36°28' E 024°30'918.3
2017-Dec-07 21:30N 36°23' E 024°40'918.2
2017-Dec-07 21:00N 36°17' E 024°49'918.1
2017-Dec-07 20:30N 36°12' E 024°59'918.2
2017-Dec-07 20:00N 36°07' E 025°08'918.1
2017-Dec-07 19:30N 36°02' E 025°17'918.1
2017-Dec-07 19:00N 35°57' E 025°27'917.9
2017-Dec-07 18:30N 35°52' E 025°36'918.1
2017-Dec-07 18:00N 35°47' E 025°45'917.9
2017-Dec-07 17:30N 35°42' E 025°54'1417.9
2017-Dec-07 16:44N 35°35' E 026°09'418.2
2017-Dec-07 16:30N 35°33' E 026°13'  

Dump ship's entire track history